Sunday, April 21, 2019, 10:35 PM EDT
Back to Local

KFRG, Farmingdale Republic Airport

Location: Farmingdale, NY, United States Lat: 40.733
Local Time: 10:35 PM EDT ( 2:35 GMT) Lon: -73.417
Time Zone: US/Eastern Elev: 82 ft

Show me the last for .
Show Decoded

2019-04-21 21:53 METAR KFRG 220153Z 00000KT 10SM CLR 11/08 A3009 RMK AO2 SLP190 T01110078 =
2019-04-21 20:53 METAR KFRG 220053Z 11004KT 10SM CLR 12/08 A3009 RMK AO2 SLP190 T01170078 =
2019-04-21 19:53 METAR KFRG 212353Z 16005KT 10SM CLR 12/08 A3009 RMK AO2 SLP189 T01170078 10161
                 20117 53015 =
2019-04-21 18:53 METAR KFRG 212253Z AUTO 18008KT 10SM CLR 13/08 A3007 RMK AO2 SLP184 T01280078 =
2019-04-21 17:53 METAR KFRG 212153Z AUTO 20010KT 10SM CLR 14/08 A3006 RMK AO2 SLP179 T01390078 =
2019-04-21 16:53 METAR KFRG 212053Z 18010KT 10SM CLR 15/08 A3005 RMK AO2 SLP174 T01500078 53004 =
2019-04-21 15:53 METAR KFRG 211953Z 16012KT 10SM CLR 16/09 A3003 RMK AO2 SLP169 T01560089 =
2019-04-21 14:53 METAR KFRG 211853Z 17007KT 10SM CLR 15/11 A3003 RMK AO2 SLP167 T01500106 =
2019-04-21 13:53 METAR KFRG 211753Z 16013KT 10SM FEW009 SCT046 OVC060 14/11 A3003 RMK AO2 SLP170
                 60000 T01390111 10144 20122 51010 =
2019-04-21 13:46 METAR KFRG 211746Z 15013KT 10SM SCT008 BKN047 OVC060 14/12 A3003 RMK AO2
                 T01390117 =
2019-04-21 12:53 METAR KFRG 211653Z 16016G20KT 10SM OVC006 13/12 A3003 RMK AO2 SLP170 T01330117 =
2019-04-21 11:53 METAR KFRG 211553Z 14010KT 10SM OVC009 14/12 A3002 RMK AO2 CIG 007V011 SLP165
                 T01440122 =
2019-04-21 11:27 METAR KFRG 211527Z 16013KT 10SM OVC008 14/12 A3002 RMK AO2 CIG 006V010 T01390122
                 =
2019-04-21 11:18 METAR KFRG 211518Z 16012KT 10SM OVC019 14/12 A3002 RMK AO2 T01390122 =
2019-04-21 10:53 METAR KFRG 211453Z 14009KT 10SM BKN007 BKN013 OVC019 14/12 A3000 RMK AO2 SLP159
                 60000 T01440122 53006 =
2019-04-21 10:09 METAR KFRG 211409Z 14012G18KT 10SM BKN007 BKN025 13/12 A3000 RMK AO2 T01330122 =
2019-04-21 10:00 METAR KFRG 211400Z 15010KT 10SM SCT007 14/13 A3000 RMK AO2 T01390128 =
2019-04-21 09:53 METAR KFRG 211353Z 14012KT 10SM BKN007 BKN100 14/12 A3000 RMK AO2 SLP157
                 T01390122 =
2019-04-21 09:36 METAR KFRG 211336Z 16009KT 10SM BKN007 BKN036 BKN080 13/12 A2998 RMK AO2
                 T01330122 =
2019-04-21 08:53 METAR KFRG 211253Z 15008KT 10SM SCT005 BKN095 13/12 A2998 RMK AO2 RAB1158E08
                 SLP153 P0000 T01280117 =
2019-04-21 08:51 METAR KFRG 211251Z 16007KT 10SM SCT005 BKN095 12/12 A2999 RMK AO2 RAB1158E08
                 P0000 =
2019-04-21 08:08 METAR KFRG 211208Z 14009KT 10SM BKN006 BKN035 OVC070 12/12 A2996 RMK AO2
                 RAB1158E08 P0000 T01220117 =
2019-04-21 08:05 METAR KFRG 211205Z 13011KT 10SM -RA SCT006 BKN035 OVC070 13/12 A2996 RMK AO2
                 RAB1158 P0000 T01280117 =
2019-04-21 07:53 METAR KFRG 211153Z 12008KT 10SM SCT041 BKN075 OVC100 13/12 A2995 RMK AO2 RAE18
                 SLP142 P0002 60003 70019 T01280117 10128 20111 50013 =
2019-04-21 07:43 METAR KFRG 211143Z 13008KT 10SM FEW006 SCT038 OVC100 13/12 A2996 RMK AO2 RAE18
                 P0002 T01280117 =
2019-04-21 06:53 METAR KFRG 211053Z AUTO 12006KT 10SM -RA SCT065 OVC080 12/10 A2996 RMK AO2
                 RAB03E17B39 SLP145 P0001 T01170100 =
2019-04-21 05:53 METAR KFRG 210953Z AUTO 17004KT 10SM BKN070 OVC080 12/10 A2994 RMK AO2 RAB31E41
                 SLP140 P0000 T01170100 =
2019-04-21 04:53 METAR KFRG 210853Z AUTO 13006KT 10SM OVC070 12/10 A2991 RMK AO2 SLP130 T01170100
                 51004 =
2019-04-21 03:53 METAR KFRG 210753Z AUTO 12005KT 10SM BKN090 OVC110 12/10 A2991 RMK AO2 SLP129
                 T01170100 =
2019-04-21 02:53 METAR KFRG 210653Z AUTO 14006KT 10SM OVC100 12/10 A2991 RMK AO2 SLP126 T01220100
                 =
2019-04-21 01:53 METAR KFRG 210553Z AUTO 19008KT 10SM OVC100 13/10 A2990 RMK AO2 SLP124 T01280100
                 10144 20122 53004 =
2019-04-21 00:53 METAR KFRG 210453Z AUTO 17007KT 10SM OVC095 13/11 A2990 RMK AO2 SLP124 T01280106
                 401670122 =
2019-04-20 23:53 METAR KFRG 210353Z AUTO 17012KT 10SM OVC090 13/11 A2989 RMK AO2 SLP120 T01330111
                 =
2019-04-20 22:53 METAR KFRG 210253Z AUTO 16011KT 10SM OVC070 13/11 A2989 RMK AO2 SLP120 T01330111
                 53007 =

Support USWX by starting your Amazon purchase here.